Csl Tarantau — C6CL9 — position and weather

sailwx.info

Track history (hours):
 
Tides and Currents Weather Stations Pressure Air Temp Water Temp Dewpoint Dewpoint Depression Visibility Wind Speed Wind Dir Waves Ship Positions

Csl Tarantau

Last reported at 2018-Feb-24 16:25 UTC. Time now 2018-Feb-24 16:38 UTC.
Position N 40°50' E 029°14'.

Length 220 m; draft 8.4 m.

Type: Ship. MMSI: 311000508.

Date/timePositionNaut miles runAvg speedWind from/ knotsBaromVisibWave heightAir tempDewpointWater temp
2018-Feb-24 16:25N 40°50' E 029°14'0 0.0
2018-Feb-24 15:55N 40°50' E 029°14'0 0.0
2018-Feb-24 15:25N 40°50' E 029°14'0 0.0
2018-Feb-24 14:49N 40°50' E 029°14'0 0.3
2018-Feb-24 14:29N 40°50' E 029°14'1 2.7
2018-Feb-24 14:01N 40°49' E 029°13'3 5.7
2018-Feb-24 13:30N 40°48' E 029°09'510.5
2018-Feb-24 13:00N 40°47' E 029°02'612.9
2018-Feb-24 12:30N 40°47' E 028°54'29110.0
2018-Feb-23 07:25N 37°37' E 024°10'3212.3
2018-Feb-23 04:48N 37°09' E 023°49'43511.7
2018-Feb-21 15:33N 36°20' E 014°49'012.6
2018-Feb-21 15:30N 36°20' E 014°49'612.8
2018-Feb-21 15:01N 36°22' E 014°42'712.8
2018-Feb-21 14:29N 36°25' E 014°34'612.8
2018-Feb-21 14:00N 36°28' E 014°27'612.7
2018-Feb-21 13:30N 36°30' E 014°19'612.6
2018-Feb-21 12:59N 36°32' E 014°12'612.4
2018-Feb-21 12:28N 36°35' E 014°05'63212.3
2018-Feb-19 09:02N 40°57' E 001°47'312.1
2018-Feb-19 08:50N 40°57' E 001°44'511.7
2018-Feb-19 08:24N 40°59' E 001°38'  
2018-Feb-16 14:17N 38°20' E 000°10'411.7
2018-Feb-16 13:58N 38°17' E 000°06'3810.0
2018-Feb-16 10:09N 37°45' W 000°20'1 9.2
2018-Feb-16 10:00N 37°44' W 000°21'5 9.5
2018-Feb-16 09:28N 37°40' W 000°25'5 9.5
2018-Feb-16 09:00N 37°36' W 000°28'5 9.4
2018-Feb-16 08:29N 37°32' W 000°32'812.7
2018-Feb-16 07:52N 37°27' W 000°39'511.8
2018-Feb-16 07:29N 37°24' W 000°44'511.5
2018-Feb-16 07:00N 37°20' W 000°49'711.7
2018-Feb-16 06:26N 37°16' W 000°55'511.6
2018-Feb-16 06:00N 37°13' W 000°60'611.6
2018-Feb-16 05:27N 37°09' W 001°06'511.4
2018-Feb-16 04:59N 37°05' W 001°11'20510.2
2018-Feb-15 08:58N 36°01' W 005°13'511.6
2018-Feb-15 08:31N 35°59' W 005°19'612.2
2018-Feb-15 08:00N 35°58' W 005°27'  
Track history (hours):
 
Tides and Currents Weather Stations Pressure Air Temp Water Temp Dewpoint Dewpoint Depression Visibility Wind Speed Wind Dir Waves Ship Positions

Csl Tarantau

Last reported at 2018-Feb-24 16:25 UTC. Time now 2018-Feb-24 16:38 UTC.
Position N 40°50' E 029°14'.

Length 220 m; draft 8.4 m.

Type: Ship. MMSI: 311000508.

Date/timePositionNaut miles runAvg speedWind from/ knotsBaromVisibWave heightAir tempDewpointWater temp
2018-Feb-24 16:25N 40°50' E 029°14'0 0.0
2018-Feb-24 15:55N 40°50' E 029°14'0 0.0
2018-Feb-24 15:25N 40°50' E 029°14'0 0.0
2018-Feb-24 14:49N 40°50' E 029°14'0 0.3
2018-Feb-24 14:29N 40°50' E 029°14'1 2.7
2018-Feb-24 14:01N 40°49' E 029°13'3 5.7
2018-Feb-24 13:30N 40°48' E 029°09'510.5
2018-Feb-24 13:00N 40°47' E 029°02'612.9
2018-Feb-24 12:30N 40°47' E 028°54'29110.0
2018-Feb-23 07:25N 37°37' E 024°10'3212.3
2018-Feb-23 04:48N 37°09' E 023°49'43511.7
2018-Feb-21 15:33N 36°20' E 014°49'012.6
2018-Feb-21 15:30N 36°20' E 014°49'612.8
2018-Feb-21 15:01N 36°22' E 014°42'712.8
2018-Feb-21 14:29N 36°25' E 014°34'612.8
2018-Feb-21 14:00N 36°28' E 014°27'612.7
2018-Feb-21 13:30N 36°30' E 014°19'612.6
2018-Feb-21 12:59N 36°32' E 014°12'612.4
2018-Feb-21 12:28N 36°35' E 014°05'63212.3
2018-Feb-19 09:02N 40°57' E 001°47'312.1
2018-Feb-19 08:50N 40°57' E 001°44'511.7
2018-Feb-19 08:24N 40°59' E 001°38'  
2018-Feb-16 14:17N 38°20' E 000°10'411.7
2018-Feb-16 13:58N 38°17' E 000°06'3810.0
2018-Feb-16 10:09N 37°45' W 000°20'1 9.2
2018-Feb-16 10:00N 37°44' W 000°21'5 9.5
2018-Feb-16 09:28N 37°40' W 000°25'5 9.5
2018-Feb-16 09:00N 37°36' W 000°28'5 9.4
2018-Feb-16 08:29N 37°32' W 000°32'812.7
2018-Feb-16 07:52N 37°27' W 000°39'511.8
2018-Feb-16 07:29N 37°24' W 000°44'511.5
2018-Feb-16 07:00N 37°20' W 000°49'711.7
2018-Feb-16 06:26N 37°16' W 000°55'511.6
2018-Feb-16 06:00N 37°13' W 000°60'611.6
2018-Feb-16 05:27N 37°09' W 001°06'511.4
2018-Feb-16 04:59N 37°05' W 001°11'20510.2
2018-Feb-15 08:58N 36°01' W 005°13'511.6
2018-Feb-15 08:31N 35°59' W 005°19'612.2
2018-Feb-15 08:00N 35°58' W 005°27'  

Dump ship's entire track history